Time;durP1;ratioP1;P1;durP2;ratioP2;P2;SDS_P1;SDS_P2;PMS_P1;PMS_P2;Temp;Humidity;BMP_temperature;BMP_pressure;BME280_temperature;BME280_humidity;BME280_pressure;Samples;Min_cycle;Max_cycle;Signal;HPM_P1;HPM_P2
2022/04/23 00:02:48;;;;;;;18.65;13.60;;;;;;;7.54;100.00;99278.00;5589530;31;33917;-67
2022/04/23 00:05:51;;;;;;;19.95;13.40;;;;;;;7.57;100.00;99290.84;5589126;31;34308;-67
2022/04/23 00:08:54;;;;;;;17.80;12.88;;;;;;;7.53;100.00;99285.09;5588209;31;32675;-67
2022/04/23 00:11:58;;;;;;;19.12;13.57;;;;;;;7.60;100.00;99286.03;5588425;31;32699;-68
2022/04/23 00:15:01;;;;;;;22.48;13.75;;;;;;;7.60;100.00;99288.66;5588970;31;33870;-67
2022/04/23 00:18:08;;;;;;;19.65;13.95;;;;;;;7.58;100.00;99288.03;5587927;31;32331;-67
2022/04/23 00:21:11;;;;;;;20.58;13.02;;;;;;;7.62;100.00;99293.78;5588826;31;33962;-68
2022/04/23 00:24:14;;;;;;;16.62;13.18;;;;;;;7.65;100.00;99288.97;5588211;31;32375;-67
2022/04/23 00:27:16;;;;;;;19.70;13.43;;;;;;;7.62;100.00;99289.31;5588028;31;32606;-68
2022/04/23 00:30:20;;;;;;;19.42;13.40;;;;;;;7.63;100.00;99287.50;5588706;31;34652;-69
2022/04/23 00:33:22;;;;;;;17.45;13.20;;;;;;;7.57;100.00;99285.56;5588597;31;34000;-68
2022/04/23 00:36:28;;;;;;;18.15;13.00;;;;;;;7.59;100.00;99288.88;5590412;31;34602;-69
2022/04/23 00:39:30;;;;;;;17.50;12.80;;;;;;;7.55;100.00;99287.56;5590982;31;33899;-68
2022/04/23 00:42:51;;;;;;;18.85;13.23;;;;;;;7.52;100.00;99280.00;5590471;31;34115;-69
2022/04/23 00:45:54;;;;;;;19.10;12.88;;;;;;;7.48;100.00;99283.97;5590352;31;32442;-68
2022/04/23 00:49:02;;;;;;;18.77;13.10;;;;;;;7.48;100.00;99287.44;5591069;31;34062;-68
2022/04/23 00:52:06;;;;;;;19.48;13.07;;;;;;;7.48;100.00;99283.97;5591022;31;33984;-69
2022/04/23 00:55:09;;;;;;;18.20;13.43;;;;;;;7.51;100.00;99291.53;5590384;31;32691;-69
2022/04/23 00:58:16;;;;;;;18.87;12.77;;;;;;;7.58;100.00;99292.50;5590781;31;34906;-68
2022/04/23 01:01:23;;;;;;;19.42;13.50;;;;;;;7.56;100.00;99283.91;5590883;31;33928;-69
2022/04/23 01:04:26;;;;;;;19.62;13.90;;;;;;;7.56;100.00;99284.75;5590823;31;34091;-68
2022/04/23 01:07:29;;;;;;;20.35;12.88;;;;;;;7.59;100.00;99287.06;5591150;31;34327;-68
2022/04/23 01:10:32;;;;;;;19.25;13.77;;;;;;;7.55;100.00;99288.38;5590187;31;32279;-69
2022/04/23 01:13:34;;;;;;;17.40;12.68;;;;;;;7.56;100.00;99295.28;5591089;31;33981;-68
2022/04/23 01:16:37;;;;;;;21.00;12.57;;;;;;;7.59;100.00;99286.22;5589955;31;33319;-69
2022/04/23 01:19:40;;;;;;;18.15;12.27;;;;;;;7.58;100.00;99293.31;5589572;31;32675;-68
2022/04/23 01:22:44;;;;;;;22.02;12.88;;;;;;;7.53;100.00;99292.19;5590743;31;34015;-68
2022/04/23 01:25:49;;;;;;;18.00;12.15;;;;;;;7.54;100.00;99289.38;5590699;31;34342;-69
2022/04/23 01:28:51;;;;;;;17.10;12.88;;;;;;;7.56;100.00;99286.56;5589868;31;32790;-68
2022/04/23 01:31:54;;;;;;;16.23;11.77;;;;;;;7.57;100.00;99288.22;5589168;31;32475;-68
2022/04/23 01:34:57;;;;;;;17.70;12.50;;;;;;;7.57;100.00;99289.03;5589915;31;33956;-68
2022/04/23 01:37:59;;;;;;;18.20;12.88;;;;;;;7.59;100.00;99284.41;5588861;31;35223;-68
2022/04/23 01:41:02;;;;;;;18.95;12.50;;;;;;;7.58;100.00;99282.75;5589503;31;34565;-68
2022/04/23 01:44:05;;;;;;;17.15;12.73;;;;;;;7.59;100.00;99284.41;5589433;31;34649;-68
2022/04/23 01:47:07;;;;;;;16.75;12.13;;;;;;;7.67;100.00;99286.16;5589140;31;34269;-67
2022/04/23 01:50:10;;;;;;;20.08;12.40;;;;;;;7.64;100.00;99290.00;5588588;31;34560;-67
2022/04/23 01:53:13;;;;;;;15.23;11.52;;;;;;;7.65;100.00;99290.81;5589283;31;34590;-67
2022/04/23 01:56:15;;;;;;;18.70;11.48;;;;;;;7.66;100.00;99293.25;5588560;31;33442;-67
2022/04/23 01:59:18;;;;;;;15.38;11.52;;;;;;;7.67;100.00;99297.53;5589095;31;34764;-67
2022/04/23 02:02:22;;;;;;;20.67;12.73;;;;;;;7.63;100.00;99304.19;5589493;31;33909;-67
2022/04/23 02:05:25;;;;;;;15.85;11.43;;;;;;;7.72;100.00;99302.28;5589273;31;33891;-67
2022/04/23 02:08:27;;;;;;;18.48;12.25;;;;;;;7.72;100.00;99297.84;5588856;31;34027;-67
2022/04/23 02:11:31;;;;;;;16.55;11.65;;;;;;;7.72;100.00;99303.12;5588911;31;34038;-67
2022/04/23 02:14:35;;;;;;;15.80;11.75;;;;;;;7.72;100.00;99300.47;5589101;31;34227;-67
2022/04/23 02:17:40;;;;;;;17.17;11.63;;;;;;;7.83;100.00;99293.97;5588327;31;34739;-67
2022/04/23 02:20:43;;;;;;;17.35;11.82;;;;;;;7.74;100.00;99300.31;5588519;31;34309;-67
2022/04/23 02:23:47;;;;;;;17.58;12.23;;;;;;;7.74;100.00;99305.59;5588182;31;32656;-67
2022/04/23 02:26:49;;;;;;;14.68;10.25;;;;;;;7.75;100.00;99304.56;5588171;31;32681;-67
2022/04/23 02:29:53;;;;;;;16.90;10.98;;;;;;;7.71;100.00;99306.75;5588684;31;34861;-67
2022/04/23 02:32:56;;;;;;;15.57;10.88;;;;;;;7.73;100.00;99315.34;5584742;31;20098;-66
2022/04/23 02:35:59;;;;;;;12.75;10.10;;;;;;;7.77;100.00;99316.63;5590005;31;34050;-67
2022/04/23 02:39:02;;;;;;;15.15;10.27;;;;;;;7.76;100.00;99319.41;5590082;31;34424;-67
2022/04/23 02:42:07;;;;;;;15.27;10.85;;;;;;;7.76;100.00;99320.25;5589178;31;33363;-67
2022/04/23 02:45:14;;;;;;;17.92;10.65;;;;;;;7.79;100.00;99313.81;5589903;31;34798;-67
2022/04/23 02:48:18;;;;;;;14.77;9.95;;;;;;;7.85;100.00;99315.72;5589312;31;33771;-67
2022/04/23 02:51:20;;;;;;;14.68;10.80;;;;;;;7.79;100.00;99311.16;5589259;31;32755;-67
2022/04/23 02:54:23;;;;;;;16.83;11.18;;;;;;;7.76;100.00;99314.97;5588940;31;32970;-67
2022/04/23 02:57:26;;;;;;;16.75;10.68;;;;;;;7.77;100.00;99311.34;5588983;31;34630;-67
2022/04/23 03:00:28;;;;;;;14.70;10.40;;;;;;;7.74;100.00;99311.69;5589691;31;34280;-67
2022/04/23 03:03:31;;;;;;;14.73;10.50;;;;;;;7.79;100.00;99313.81;5589886;31;34649;-67
2022/04/23 03:06:34;;;;;;;14.87;10.25;;;;;;;7.86;100.00;99317.38;5590007;31;34701;-67
2022/04/23 03:09:37;;;;;;;15.90;10.10;;;;;;;7.79;100.00;99313.81;5589743;31;34666;-67
2022/04/23 03:12:40;;;;;;;17.85;10.93;;;;;;;7.81;100.00;99317.91;5589854;31;34307;-67
2022/04/23 03:15:44;;;;;;;16.12;10.88;;;;;;;7.84;100.00;99322.03;5588817;31;32655;-67
2022/04/23 03:18:48;;;;;;;15.23;11.25;;;;;;;7.85;100.00;99323.66;5589669;31;35237;-67
2022/04/23 03:21:51;;;;;;;16.73;11.73;;;;;;;7.88;100.00;99328.59;5589548;31;34620;-67
2022/04/23 03:24:53;;;;;;;16.27;11.40;;;;;;;7.79;100.00;99327.00;5588819;31;32691;-67
2022/04/23 03:27:56;;;;;;;15.68;11.52;;;;;;;7.78;100.00;99326.19;5589469;31;34014;-67
2022/04/23 03:30:58;;;;;;;16.83;12.20;;;;;;;7.79;100.00;99330.44;5589319;31;34137;-67
2022/04/23 03:34:01;;;;;;;17.95;11.95;;;;;;;7.79;100.00;99327.00;5589529;31;34497;-67
2022/04/23 03:37:05;;;;;;;16.40;10.80;;;;;;;7.78;100.00;99333.28;5589453;31;34656;-67
2022/04/23 03:40:09;;;;;;;14.98;10.32;;;;;;;7.72;100.00;99333.97;5589836;31;33999;-67
2022/04/23 03:43:12;;;;;;;15.55;11.95;;;;;;;7.73;100.00;99336.44;5588784;31;32604;-67
2022/04/23 03:46:15;;;;;;;18.00;11.52;;;;;;;7.74;100.00;99332.81;5575430;31;33169;-67
2022/04/23 03:49:18;;;;;;;15.98;11.80;;;;;;;7.75;100.00;99338.87;5589357;31;34002;-67
2022/04/23 03:52:20;;;;;;;17.70;12.15;;;;;;;7.74;100.00;99339.91;5589255;31;34547;-67
2022/04/23 03:55:25;;;;;;;17.00;11.25;;;;;;;7.84;100.00;99351.06;5589578;31;34047;-66
2022/04/23 03:58:28;;;;;;;16.67;11.80;;;;;;;7.93;100.00;99359.75;5589218;31;33959;-67
2022/04/23 04:01:31;;;;;;;15.90;11.57;;;;;;;7.85;100.00;99357.97;5588241;31;34242;-67
2022/04/23 04:04:34;;;;;;;16.20;11.63;;;;;;;7.85;100.00;99355.34;5589107;31;33975;-66
2022/04/23 04:07:42;;;;;;;17.30;11.85;;;;;;;7.76;100.00;99356.38;5589245;31;34624;-67
2022/04/23 04:10:45;;;;;;;17.05;11.75;;;;;;;7.81;100.00;99360.16;5588156;31;33961;-66
2022/04/23 04:13:47;;;;;;;19.25;11.95;;;;;;;7.80;100.00;99357.66;5587835;31;32670;-67
2022/04/23 04:16:50;;;;;;;16.33;11.50;;;;;;;7.75;100.00;99363.47;5588917;31;34428;-67
2022/04/23 04:19:53;;;;;;;17.37;11.82;;;;;;;7.74;100.00;99355.75;5588255;31;33485;-67
2022/04/23 04:22:56;;;;;;;16.08;11.38;;;;;;;7.78;100.00;99372.88;5588836;31;33935;-67
2022/04/23 04:25:59;;;;;;;15.68;10.90;;;;;;;7.74;100.00;99369.78;5587880;31;34251;-67
2022/04/23 04:29:02;;;;;;;16.08;10.93;;;;;;;7.74;100.00;99364.50;5588627;31;34018;-68
2022/04/23 04:32:07;;;;;;;14.38;10.70;;;;;;;7.92;100.00;99366.84;5588894;31;34130;-67
2022/04/23 04:35:10;;;;;;;14.98;10.23;;;;;;;7.90;100.00;99368.84;5587786;31;34041;-67
2022/04/23 04:38:13;;;;;;;16.23;10.88;;;;;;;7.95;100.00;99365.66;5587822;31;32499;-67
2022/04/23 04:41:16;;;;;;;12.98;10.07;;;;;;;8.03;100.00;99369.09;5588547;31;34075;-67
2022/04/23 04:44:18;;;;;;;12.95;10.15;;;;;;;8.00;100.00;99374.72;5587493;31;32363;-67
2022/04/23 04:47:21;;;;;;;14.93;10.45;;;;;;;7.95;100.00;99373.59;5588743;31;34625;-67
2022/04/23 04:50:23;;;;;;;13.18;9.57;;;;;;;7.91;100.00;99378.41;5587910;31;33945;-67
2022/04/23 04:53:26;;;;;;;14.20;9.90;;;;;;;7.91;100.00;99374.94;5588264;31;34031;-67
2022/04/23 04:56:29;;;;;;;13.27;9.98;;;;;;;7.92;100.00;99376.59;5588067;31;33981;-67
2022/04/23 04:59:32;;;;;;;14.10;9.82;;;;;;;8.01;100.00;99378.19;5588222;31;34254;-67
2022/04/23 05:02:35;;;;;;;18.20;10.27;;;;;;;8.09;100.00;99378.94;5586929;31;32870;-67
2022/04/23 05:05:39;;;;;;;16.55;10.05;;;;;;;8.14;100.00;99381.88;5587391;31;33915;-67
2022/04/23 05:08:42;;;;;;;15.57;10.27;;;;;;;8.19;100.00;99382.16;5587248;31;32569;-67
2022/04/23 05:11:44;;;;;;;13.90;10.07;;;;;;;8.26;100.00;99384.94;5588401;31;34680;-67
2022/04/23 05:14:47;;;;;;;14.52;10.05;;;;;;;8.25;100.00;99386.75;5587754;31;33957;-67
2022/04/23 05:17:53;;;;;;;13.73;9.98;;;;;;;8.32;100.00;99391.37;5587745;31;34777;-67
2022/04/23 05:20:56;;;;;;;14.48;10.40;;;;;;;8.41;100.00;99392.94;5588421;31;33939;-67
2022/04/23 05:23:59;;;;;;;14.30;9.60;;;;;;;8.56;100.00;99396.44;5589810;31;32659;-68
2022/04/23 05:27:01;;;;;;;13.62;9.73;;;;;;;8.52;100.00;99403.88;5590465;31;34690;-68
2022/04/23 05:30:05;;;;;;;12.88;9.68;;;;;;;8.55;100.00;99400.91;5590704;31;34028;-68
2022/04/23 05:33:07;;;;;;;14.23;9.57;;;;;;;8.48;100.00;99404.44;5590443;31;35566;-68
2022/04/23 05:36:10;;;;;;;14.27;9.98;;;;;;;8.65;100.00;99414.69;5590624;31;34706;-68
2022/04/23 05:39:13;;;;;;;12.73;9.45;;;;;;;8.65;100.00;99411.22;5589506;31;33033;-67
2022/04/23 05:42:22;;;;;;;12.70;9.57;;;;;;;8.71;100.00;99411.31;5590292;31;34099;-67
2022/04/23 05:45:26;;;;;;;12.18;9.02;;;;;;;8.77;100.00;99412.44;5589704;31;34572;-67
2022/04/23 05:48:29;;;;;;;16.33;9.30;;;;;;;8.71;100.00;99413.97;5589714;31;33909;-68
2022/04/23 05:51:31;;;;;;;13.90;8.43;;;;;;;8.72;100.00;99412.16;5590689;31;34683;-68
2022/04/23 05:54:34;;;;;;;11.57;8.82;;;;;;;8.99;100.00;99414.22;5590693;31;33944;-68
2022/04/23 05:57:38;;;;;;;12.32;8.00;;;;;;;9.09;100.00;99408.66;5589522;31;32413;-67
2022/04/23 06:00:41;;;;;;;11.55;8.70;;;;;;;9.02;100.00;99411.19;5589355;31;34599;-67
2022/04/23 06:03:43;;;;;;;11.77;7.97;;;;;;;9.19;100.00;99414.50;5589576;31;34865;-67
2022/04/23 06:06:46;;;;;;;11.45;8.00;;;;;;;9.13;100.00;99433.75;5589287;31;33710;-68
2022/04/23 06:09:49;;;;;;;10.82;7.75;;;;;;;9.25;100.00;99426.97;5590202;31;34018;-68
2022/04/23 06:12:51;;;;;;;11.63;8.10;;;;;;;9.43;100.00;99422.16;5589730;31;33309;-67
2022/04/23 06:15:54;;;;;;;11.27;7.50;;;;;;;9.69;100.00;99423.47;5589584;31;32709;-67
2022/04/23 06:18:57;;;;;;;10.52;7.70;;;;;;;9.84;100.00;99433.03;5590082;31;34001;-67
2022/04/23 06:22:00;;;;;;;10.88;7.50;;;;;;;10.35;100.00;99428.53;5589399;31;33224;-67
2022/04/23 06:25:02;;;;;;;9.27;6.55;;;;;;;10.10;100.00;99434.34;5589122;31;34628;-67
2022/04/23 06:28:08;;;;;;;8.68;6.28;;;;;;;10.08;100.00;99442.47;5576165;31;32618;-67
2022/04/23 06:31:11;;;;;;;9.88;6.30;;;;;;;10.59;100.00;99453.84;5589059;31;33194;-66
2022/04/23 06:34:14;;;;;;;9.68;6.62;;;;;;;9.91;100.00;99456.97;5588800;31;34206;-67
2022/04/23 06:37:18;;;;;;;9.20;6.53;;;;;;;10.02;100.00;99462.59;5589834;31;35151;-67
2022/04/23 06:40:21;;;;;;;8.38;6.30;;;;;;;10.36;100.00;99463.84;5589772;31;34070;-67
2022/04/23 06:43:24;;;;;;;11.82;6.45;;;;;;;10.63;100.00;99468.37;5576246;31;32743;-67
2022/04/23 06:46:27;;;;;;;9.15;6.60;;;;;;;10.37;100.00;99476.88;5588644;31;33199;-66
2022/04/23 06:49:30;;;;;;;9.48;5.80;;;;;;;10.71;100.00;99472.72;5589071;31;32561;-67
2022/04/23 06:52:33;;;;;;;8.40;5.78;;;;;;;10.69;100.00;99477.41;5588774;31;34720;-66
2022/04/23 06:55:35;;;;;;;10.05;6.40;;;;;;;10.51;100.00;99480.47;5588858;31;33705;-66
2022/04/23 06:58:38;;;;;;;8.73;5.72;;;;;;;10.49;100.00;99485.16;5589983;31;33955;-66
2022/04/23 07:01:41;;;;;;;8.77;5.87;;;;;;;10.53;100.00;99486.44;5576080;31;32714;-66
2022/04/23 07:04:44;;;;;;;9.15;5.75;;;;;;;10.56;100.00;99487.88;5588567;31;33548;-67
2022/04/23 07:08:17;;;;;;;7.35;5.47;;;;;;;11.09;100.00;99489.16;5575803;31;32466;-67
2022/04/23 07:11:19;;;;;;;6.60;4.82;;;;;;;11.31;100.00;99488.09;5577494;31;34541;-67
2022/04/23 07:14:23;;;;;;;8.55;5.62;;;;;;;11.63;100.00;99489.31;5589120;31;33185;-67
2022/04/23 07:17:26;;;;;;;9.43;5.90;;;;;;;12.24;100.00;99494.72;5588964;31;33225;-67
2022/04/23 07:20:29;;;;;;;7.37;5.47;;;;;;;12.13;100.00;99504.09;5576082;31;32827;-67
2022/04/23 07:26:53;;;;;;;8.43;5.57;;;;;;;11.93;100.00;99511.16;5588595;31;33269;-68
2022/04/23 07:29:55;;;;;;;7.28;5.40;;;;;;;11.63;100.00;99515.88;5588672;31;33761;-68
2022/04/23 07:32:58;;;;;;;8.15;5.60;;;;;;;11.39;100.00;99508.38;5588920;31;32802;-67
2022/04/23 07:39:23;;;;;;;7.90;4.85;;;;;;;11.31;100.00;99504.03;5588073;31;32612;-68
2022/04/23 07:42:27;;;;;;;7.85;4.82;;;;;;;12.03;100.00;99501.81;5588189;31;33731;-67
2022/04/23 07:45:30;;;;;;;6.10;4.95;;;;;;;12.57;96.19;99506.28;5588202;31;32376;-67
2022/04/23 07:48:33;;;;;;;6.87;4.90;;;;;;;12.77;94.17;99516.94;5589164;31;33986;-67
2022/04/23 07:51:36;;;;;;;6.80;4.90;;;;;;;12.67;96.23;99524.50;5588574;31;33154;-67
2022/04/23 07:54:39;;;;;;;7.68;4.87;;;;;;;12.30;98.87;99528.47;5575513;31;33250;-68
2022/04/23 07:57:41;;;;;;;8.35;4.72;;;;;;;11.99;100.00;99527.16;5589416;31;34661;-67
2022/04/23 08:00:45;;;;;;;9.73;5.28;;;;;;;12.12;97.87;99534.34;5588440;31;33201;-67
2022/04/23 08:03:47;;;;;;;7.30;4.57;;;;;;;12.31;98.13;99527.47;5588088;31;32701;-68
2022/04/23 08:06:50;;;;;;;8.73;4.95;;;;;;;12.50;94.97;99527.53;5588223;31;32754;-67
2022/04/23 08:09:53;;;;;;;9.80;4.43;;;;;;;12.50;95.14;99532.03;5588351;31;33211;-67
2022/04/23 08:12:56;;;;;;;8.10;5.25;;;;;;;12.18;96.62;99545.03;5588040;31;34630;-67
2022/04/23 08:15:59;;;;;;;7.35;4.90;;;;;;;12.09;100.00;99542.75;5588669;31;34371;-68
2022/04/23 08:19:04;;;;;;;8.85;5.30;;;;;;;12.24;96.71;99548.75;5588737;31;34523;-68
2022/04/23 08:22:06;;;;;;;6.60;4.68;;;;;;;12.29;97.23;99548.12;5587902;31;32650;-68
2022/04/23 08:25:09;;;;;;;7.15;4.65;;;;;;;12.42;96.72;99554.31;5574528;31;34041;-68
2022/04/23 08:31:33;;;;;;;6.75;4.47;;;;;;;12.59;96.43;99546.78;5587507;31;33388;-68
2022/04/23 08:34:36;;;;;;;7.50;4.30;;;;;;;12.52;93.97;99548.63;5587253;31;32635;-68
2022/04/23 08:37:39;;;;;;;7.82;4.97;;;;;;;13.19;91.56;99551.22;5588437;31;34334;-67
2022/04/23 08:40:47;;;;;;;7.78;4.90;;;;;;;13.77;87.33;99562.03;5587887;31;33503;-68
2022/04/23 08:43:52;;;;;;;5.90;4.30;;;;;;;13.44;89.16;99557.56;5587514;31;33989;-68
2022/04/23 08:46:55;;;;;;;7.60;4.68;;;;;;;13.39;89.76;99564.53;5574600;31;33379;-68
2022/04/23 08:50:01;;;;;;;7.20;4.60;;;;;;;13.67;87.84;99570.44;5587237;31;33421;-68
2022/04/23 08:53:13;;;;;;;5.80;4.35;;;;;;;13.97;86.25;99562.81;5574570;31;32285;-68
2022/04/23 08:56:16;;;;;;;8.73;5.03;;;;;;;13.39;88.53;99554.69;5575370;31;33291;-68
2022/04/23 08:59:20;;;;;;;5.97;4.43;;;;;;;12.84;89.19;99555.03;5590874;31;33993;-68
2022/04/23 09:02:32;;;;;;;7.30;4.90;;;;;;;13.72;87.37;99559.16;5590518;31;34005;-68
2022/04/23 09:05:35;;;;;;;6.75;4.82;;;;;;;13.97;83.77;99560.13;5589726;31;32596;-68
2022/04/23 09:09:07;;;;;;;6.22;4.75;;;;;;;14.13;83.72;99566.87;5589729;31;34122;-67
2022/04/23 09:12:11;;;;;;;6.37;4.00;;;;;;;13.90;84.22;99567.31;5590187;31;34066;-68
2022/04/23 09:25:37;;;;;;;6.55;4.78;;;;;;;14.07;82.81;99591.69;5589220;31;33487;-68
2022/04/23 09:28:45;;;;;;;7.35;4.70;;;;;;;14.23;84.06;99588.59;5588995;31;34493;-67
2022/04/23 09:32:17;;;;;;;7.90;4.47;;;;;;;14.50;82.31;99592.00;5589446;31;32364;-68
2022/04/23 09:35:19;;;;;;;5.43;3.97;;;;;;;15.04;76.97;99596.84;5589455;31;32701;-67
2022/04/23 09:38:23;;;;;;;5.35;3.95;;;;;;;14.82;78.14;99599.00;5590393;31;34157;-67
2022/04/23 09:41:33;;;;;;;6.93;4.35;;;;;;;15.05;75.35;99601.16;5576402;31;34158;-69
2022/04/23 09:44:36;;;;;;;6.25;4.10;;;;;;;13.80;82.00;99597.06;5590391;31;34299;-68
2022/04/23 09:47:42;;;;;;;6.18;4.07;;;;;;;13.91;82.45;99600.97;5589372;31;34056;-68
2022/04/23 09:50:47;;;;;;;8.57;4.50;;;;;;;14.96;77.64;99595.22;5576508;31;32446;-68
2022/04/23 09:53:53;;;;;;;5.70;4.00;;;;;;;15.70;76.56;99585.62;5576388;31;33258;-68
2022/04/23 09:56:57;;;;;;;5.78;4.07;;;;;;;16.15;70.46;99591.56;5589445;31;33594;-67
2022/04/23 09:59:59;;;;;;;5.35;3.47;;;;;;;16.72;66.83;99600.97;5589758;31;34122;-68
2022/04/23 10:03:07;;;;;;;5.85;3.90;;;;;;;16.28;69.52;99600.25;5590290;31;34306;-68
2022/04/23 10:06:11;;;;;;;5.40;4.03;;;;;;;16.22;69.72;99601.12;5590263;31;33531;-68
2022/04/23 10:09:17;;;;;;;5.55;3.95;;;;;;;15.61;72.60;99609.16;5589435;31;32448;-68
2022/04/23 10:12:27;;;;;;;5.78;3.90;;;;;;;16.17;70.07;99595.63;5588907;31;34064;-68
2022/04/23 10:15:32;;;;;;;5.85;4.25;;;;;;;17.83;64.42;99597.63;5589118;31;34250;-69
2022/04/23 10:18:38;;;;;;;4.95;4.00;;;;;;;17.09;66.56;99602.50;5589166;31;34371;-68
2022/04/23 10:21:56;;;;;;;6.97;4.40;;;;;;;16.66;64.68;99596.53;5576068;31;33679;-69
2022/04/23 10:25:33;;;;;;;5.37;4.05;;;;;;;17.39;62.75;99610.50;5590061;31;33860;-67
2022/04/23 10:28:43;;;;;;;9.80;4.55;;;;;;;16.99;63.45;99620.22;5589917;31;34668;-67
2022/04/23 10:32:15;;;;;;;6.75;4.30;;;;;;;17.20;61.10;99614.31;5588618;31;33611;-67
2022/04/23 10:35:18;;;;;;;6.85;4.37;;;;;;;17.07;62.66;99612.66;5589235;31;34328;-68
2022/04/23 10:38:21;;;;;;;7.93;4.43;;;;;;;16.53;64.48;99618.91;5588877;31;32748;-67
2022/04/23 10:41:24;;;;;;;6.37;4.85;;;;;;;15.56;69.89;99600.97;5575921;31;33073;-68
2022/04/23 10:44:30;;;;;;;5.22;3.97;;;;;;;15.69;71.10;99606.19;5576042;31;33992;-67
2022/04/23 10:47:34;;;;;;;6.45;4.37;;;;;;;15.21;71.83;99601.44;5588892;31;33925;-68
2022/04/23 10:50:38;;;;;;;6.00;4.15;;;;;;;14.82;72.83;99606.19;5589924;31;34660;-68
2022/04/23 10:53:46;;;;;;;5.25;3.78;;;;;;;14.70;70.61;99606.88;5589697;31;33985;-68
2022/04/23 10:56:51;;;;;;;9.18;3.92;;;;;;;14.45;71.03;99608.62;5589116;31;32440;-67
2022/04/23 10:59:53;;;;;;;5.62;3.78;;;;;;;13.72;76.10;99613.28;5589793;31;34056;-67
2022/04/23 11:03:06;;;;;;;4.85;3.80;;;;;;;13.88;77.57;99622.72;5588946;31;33179;-67
2022/04/23 11:12:55;;;;;;;6.57;4.45;;;;;;;13.26;78.96;99629.28;5589743;31;34711;-67
2022/04/23 11:16:26;;;;;;;5.43;3.85;;;;;;;13.28;79.40;99637.88;5588352;31;32775;-67
2022/04/23 11:19:30;;;;;;;5.97;3.80;;;;;;;13.15;77.81;99629.06;5586019;31;34153;-67
2022/04/23 11:22:33;;;;;;;5.00;3.72;;;;;;;13.55;75.52;99627.25;5588587;31;32641;-67
2022/04/23 11:25:35;;;;;;;6.97;4.15;;;;;;;13.51;75.54;99628.69;5589464;31;34028;-67
2022/04/23 11:28:42;;;;;;;8.20;3.90;;;;;;;13.56;76.98;99631.53;5589612;31;34309;-67
2022/04/23 11:31:51;;;;;;;6.55;4.50;;;;;;;13.49;75.14;99631.56;5589336;31;34105;-68
2022/04/23 11:34:59;;;;;;;4.45;3.55;;;;;;;13.46;75.44;99631.94;5588716;31;32795;-67
2022/04/23 11:38:02;;;;;;;5.03;3.78;;;;;;;13.72;73.80;99629.28;5588770;31;33143;-66
2022/04/23 11:41:05;;;;;;;6.00;3.95;;;;;;;14.03;74.39;99635.81;5589261;31;34641;-67
2022/04/23 11:44:45;;;;;;;5.68;4.03;;;;;;;13.67;74.29;99641.59;5588315;31;32622;-67
2022/04/23 11:47:47;;;;;;;7.75;4.82;;;;;;;13.99;76.90;99637.28;5589226;31;34193;-67
2022/04/23 11:50:50;;;;;;;7.95;4.20;;;;;;;13.81;76.36;99643.22;5589133;31;33923;-67
2022/04/23 11:54:00;;;;;;;6.57;4.35;;;;;;;14.02;75.13;99653.66;5588239;31;32543;-67
2022/04/23 11:57:05;;;;;;;6.87;4.25;;;;;;;14.28;73.20;99653.59;5588669;31;33910;-68
2022/04/23 12:00:09;;;;;;;6.10;4.15;;;;;;;13.93;73.63;99641.59;5588457;31;33476;-67
2022/04/23 12:03:11;;;;;;;6.65;4.53;;;;;;;14.56;70.89;99649.87;5588915;31;34725;-68
2022/04/23 12:06:14;;;;;;;6.97;4.60;;;;;;;14.90;70.75;99654.03;5588225;31;35141;-68
2022/04/23 12:09:17;;;;;;;9.45;4.50;;;;;;;15.42;71.70;99650.22;5588249;31;32661;-67
2022/04/23 12:12:20;;;;;;;5.78;4.20;;;;;;;15.67;70.46;99647.59;5588437;31;33752;-68
2022/04/23 12:15:23;;;;;;;6.68;4.50;;;;;;;16.20;66.73;99634.53;5575333;31;32355;-67
2022/04/23 12:18:33;;;;;;;5.85;4.10;;;;;;;17.03;63.28;99637.47;5587855;31;34193;-68
2022/04/23 12:21:37;;;;;;;5.93;4.22;;;;;;;17.43;61.68;99632.34;5588487;31;33896;-68
2022/04/23 12:24:40;;;;;;;5.90;4.32;;;;;;;17.85;58.25;99636.59;5588632;31;34009;-68
2022/04/23 12:27:52;;;;;;;5.72;3.85;;;;;;;17.19;62.68;99634.94;5588055;31;33110;-68
2022/04/23 12:41:00;;;;;;;6.18;4.05;;;;;;;20.89;46.40;99612.28;5590892;31;33906;-68
2022/04/23 12:44:19;;;;;;;4.97;3.70;;;;;;;22.67;43.63;99621.44;5589888;31;32535;-69
2022/04/23 12:47:29;;;;;;;;;;;;;;;26.67;35.35;99612.44;5591069;31;34330;-70
2022/04/23 12:50:32;;;;;;;7.82;4.55;;;;;;;29.51;30.54;99621.66;5590081;31;34812;-69
2022/04/23 12:53:36;;;;;;;7.25;4.05;;;;;;;29.72;29.54;99624.72;5589758;31;33980;-67
2022/04/23 12:56:38;;;;;;;4.90;3.87;;;;;;;25.80;32.91;99605.50;5589652;31;33210;-69
2022/04/23 12:59:41;;;;;;;5.18;3.80;;;;;;;23.51;37.99;99615.72;5577082;31;32803;-69
2022/04/23 13:02:47;;;;;;;6.20;4.00;;;;;;;23.50;39.89;99605.97;5590044;31;32443;-68
2022/04/23 13:05:50;;;;;;;11.38;4.35;;;;;;;24.25;37.17;99601.56;5590555;31;33975;-68
2022/04/23 13:08:54;;;;;;;5.57;3.92;;;;;;;21.77;42.72;99608.25;5589909;31;33172;-68
2022/04/23 13:11:57;;;;;;;6.25;4.40;;;;;;;21.82;42.87;99605.59;5589386;31;33714;-68
2022/04/23 13:15:01;;;;;;;7.78;4.07;;;;;;;20.55;46.98;99600.84;5590539;31;33890;-69
2022/04/23 13:18:05;;;;;;;6.75;3.70;;;;;;;20.45;45.65;99596.16;5576731;31;32715;-69
2022/04/23 13:21:08;;;;;;;5.40;3.72;;;;;;;22.94;41.93;99595.06;5589101;31;34165;-69
2022/04/23 13:24:10;;;;;;;5.45;3.45;;;;;;;23.76;39.01;99594.06;5590694;31;34454;-69
2022/04/23 13:27:13;;;;;;;4.37;3.53;;;;;;;26.12;33.75;99604.91;5589260;31;33330;-69
2022/04/23 13:30:17;;;;;;;6.35;3.90;;;;;;;27.18;30.89;99609.00;5589436;31;32675;-70
2022/04/23 13:33:19;;;;;;;5.75;3.85;;;;;;;24.06;38.49;99600.50;5590457;31;34809;-70
2022/04/23 13:36:22;;;;;;;8.05;3.95;;;;;;;25.03;35.83;99604.44;5589860;31;32460;-70
2022/04/23 13:39:25;;;;;;;7.07;4.60;;;;;;;21.91;41.41;99610.25;5590502;31;33931;-70
2022/04/23 13:42:28;;;;;;;5.15;3.87;;;;;;;20.77;44.77;99599.75;5588646;31;33699;-69
2022/04/23 13:45:31;;;;;;;5.53;4.60;;;;;;;19.81;47.14;99603.06;5589532;31;33256;-68
2022/04/23 13:48:34;;;;;;;7.05;5.05;;;;;;;20.77;43.77;99607.03;5589531;31;35178;-68
2022/04/23 13:51:38;;;;;;;8.48;5.07;;;;;;;22.90;39.72;99615.59;5589378;31;32787;-68
2022/04/23 13:54:41;;;;;;;6.62;4.65;;;;;;;21.77;40.83;99616.34;5589384;31;32565;-68
2022/04/23 13:57:44;;;;;;;8.75;4.70;;;;;;;18.84;49.30;99603.28;5589228;31;32356;-68
2022/04/23 14:00:46;;;;;;;7.07;4.60;;;;;;;17.98;52.52;99614.06;5589995;31;34232;-68
2022/04/23 14:10:39;;;;;;;7.75;5.53;;;;;;;18.55;51.17;99607.00;5571150;31;32780;-68
2022/04/23 14:13:42;;;;;;;7.90;4.97;;;;;;;17.91;53.52;99600.75;5589024;31;33394;-68
2022/04/23 14:16:46;;;;;;;8.60;5.78;;;;;;;16.73;55.77;99599.94;5588952;31;33423;-68
2022/04/23 14:19:49;;;;;;;9.45;6.20;;;;;;;16.51;58.27;99604.91;5588859;31;32446;-67
2022/04/23 14:22:51;;;;;;;8.85;6.32;;;;;;;15.94;62.41;99600.81;5588914;31;33621;-67
2022/04/23 14:25:54;;;;;;;8.55;5.80;;;;;;;15.90;64.40;99602.31;5588978;31;32480;-68
2022/04/23 14:28:58;;;;;;;9.43;6.18;;;;;;;16.33;60.61;99605.75;5589576;31;34747;-67
2022/04/23 14:32:02;;;;;;;9.50;6.35;;;;;;;16.21;61.41;99609.41;5589125;31;32432;-69
2022/04/23 14:35:05;;;;;;;9.15;6.20;;;;;;;16.03;63.47;99612.87;5589479;31;34609;-67
2022/04/23 14:38:08;;;;;;;9.93;6.72;;;;;;;15.88;64.33;99609.72;5588947;31;33869;-67
2022/04/23 14:41:10;;;;;;;9.68;5.87;;;;;;;16.02;62.12;99611.25;5575855;31;32487;-67
2022/04/23 14:44:13;;;;;;;8.30;6.03;;;;;;;16.00;64.39;99611.47;5588878;31;32436;-68
2022/04/23 14:47:16;;;;;;;11.12;5.70;;;;;;;15.88;67.62;99618.56;5575907;31;33048;-67
2022/04/23 14:50:19;;;;;;;6.80;5.70;;;;;;;15.84;64.48;99617.38;5588510;31;32708;-68
2022/04/23 14:53:22;;;;;;;8.02;5.57;;;;;;;15.74;66.17;99621.59;5561816;31;33532;-68
2022/04/23 14:56:28;;;;;;;11.20;6.40;;;;;;;15.48;66.87;99617.28;5589903;31;35321;-67
2022/04/23 14:59:30;;;;;;;9.65;6.18;;;;;;;15.44;67.66;99627.56;5588681;31;33995;-67
2022/04/23 15:02:33;;;;;;;11.98;6.15;;;;;;;15.15;67.64;99628.22;5575516;31;33520;-67
2022/04/23 15:05:36;;;;;;;10.88;6.43;;;;;;;14.98;69.61;99633.22;5588413;31;34043;-67